Monday, December 5, 2016, 11:36 AM EST

KESN, Easton / Newman Field

Location: Easton, MD, United States Lat: 38.8
Local Time: 11:36 AM EST (16:36 GMT) Lon: -76.067
Time Zone: US/Eastern Elev: 72 ft

Show me the last for .
Show Decoded

2016-12-05 10:55 METAR KESN 051555Z 32007KT 10SM BKN009 08/05 A3006 =
2016-12-05 09:50 METAR KESN 051450Z 28004KT 10SM OVC009 08/05 A3007 =
2016-12-05 08:50 METAR KESN 051350Z 29003KT 10SM OVC011 07/06 A3006 =
2016-12-05 07:50 METAR KESN 051250Z 00000KT 10SM OVC011 07/05 A3004 =
2016-12-05 06:50 METAR KESN 051150Z 23003KT 10SM OVC006 06/05 A3004 =
2016-12-05 05:54 METAR KESN 051054Z AUTO 21004KT 7SM OVC004 06/05 A3005 RMK AO2 T00600050 =
2016-12-05 05:50 METAR KESN 051050Z 20003KT 7SM OVC004 06/05 A3005 =
2016-12-05 05:41 METAR KESN 051041Z AUTO 21005KT 5SM -DZ OVC004 06/05 A3005 RMK AO2 T00580048 =
2016-12-05 05:21 METAR KESN 051021Z AUTO 21005KT 3SM DZ OVC004 06/05 A3005 RMK AO2 T00570046 =
2016-12-05 05:01 METAR KESN 051001Z AUTO 21006KT 3SM DZ OVC004 06/05 A3005 RMK AO2 T00550045 =
2016-12-05 04:41 METAR KESN 050941Z AUTO 21006KT 4SM RA SCT004 BKN013 OVC018 05/04 A3006 =
2016-12-05 04:21 METAR KESN 050921Z AUTO 21006KT 4SM RA SCT004 BKN011 OVC024 05/04 A3007 RMK AO2
                 T00510040 =
2016-12-05 04:01 METAR KESN 050901Z AUTO 20005KT 4SM RA BKN006 BKN013 OVC019 05/04 A3008 RMK AO2
                 T00500039 =
2016-12-05 03:41 METAR KESN 050841Z AUTO 21006KT 4SM RA SCT005 BKN011 OVC019 05/04 A3009 RMK AO2
                 T00480036 =
2016-12-05 03:21 METAR KESN 050821Z AUTO 20004KT 4SM RA BKN007 BKN012 OVC018 05/04 A3008 RMK AO2
                 T00480036 =
2016-12-05 03:01 METAR KESN 050801Z AUTO 17005KT 4SM RA BKN007 OVC010 05/04 A3008 =
2016-12-05 02:41 METAR KESN 050741Z AUTO 18005KT 4SM RA BKN009 OVC013 05/03 A3009 RMK AO2
                 T00470034 =
2016-12-05 02:21 METAR KESN 050721Z AUTO 18007KT 5SM RA SCT007 OVC013 05/03 A3009 RMK AO2
                 T00480033 =
2016-12-05 02:01 METAR KESN 050701Z AUTO 18008KT 7SM RA BKN007 OVC013 05/04 A3009 RMK AO2
                 T00500035 =
2016-12-05 01:41 METAR KESN 050641Z AUTO 17008KT 5SM RA BKN009 OVC013 05/04 A3009 RMK AO2
                 T00500035 =
2016-12-05 01:21 METAR KESN 050621Z AUTO 16006KT 5SM RA BKN009 OVC015 05/04 A3009 RMK AO2
                 T00500035 =
2016-12-05 01:00 METAR KESN 050600Z AUTO 17008KT 5SM -RA SCT006 BKN013 OVC018 05/04 A3010 RMK AO2
                 T00510037 =
2016-12-05 00:40 METAR KESN 050540Z AUTO 16006KT 5SM RA BKN009 OVC017 05/04 A3011 RMK AO2
                 T00510035 =
2016-12-05 00:20 METAR KESN 050520Z AUTO 17006KT 7SM -RA SCT004 SCT008 OVC015 05/03 A3013 RMK AO2
                 T00510033 =
2016-12-05 00:00 METAR KESN 050500Z AUTO 18005KT 7SM -RA SCT007 BKN022 OVC048 05/03 A3016 RMK AO2
                 T00510029 =
2016-12-04 23:40 METAR KESN 050440Z AUTO 18003KT 10SM -RA SCT050 SCT060 05/02 A3016 RMK AO2
                 T00530023 =
2016-12-04 23:20 METAR KESN 050420Z AUTO 16005KT 10SM -RA BKN010 BKN014 BKN060 05/02 A3015 RMK
                 AO2 T00540020 =
2016-12-04 23:00 METAR KESN 050400Z AUTO 16004KT 10SM -RA BKN010 BKN060 06/02 A3017 RMK AO2
                 T00570017 =
2016-12-04 22:40 METAR KESN 050340Z AUTO 18004KT 10SM -RA SCT010 SCT060 06/01 A3018 RMK AO2
                 T00620013 =
2016-12-04 22:20 METAR KESN 050320Z AUTO 18004KT 10SM DZ SCT060 07/00 A3018 RMK AO2 T00660004 =
2016-12-04 22:00 METAR KESN 050300Z AUTO 21005KT 10SM BKN070 07/00 A3020 RMK AO2 T00680000 =
2016-12-04 21:55 METAR KESN 050255Z 20004KT 10SM BKN070 07/00 A3020 =
2016-12-04 20:53 METAR KESN 050153Z 20005KT 10SM OVC080 07/M01 A3020 =
2016-12-04 19:53 METAR KESN 050053Z 17003KT 10SM SKC 05/M01 A3020 =
2016-12-04 18:50 METAR KESN 042350Z 15003KT 10SM SKC 05/M01 A3022 =
2016-12-04 17:50 METAR KESN 042250Z 00000KT 10SM SCT150 OVC200 06/M01 A3024 =
2016-12-04 16:50 METAR KESN 042150Z 00000KT 10SM BKN150 OVC200 06/M01 A3025 =
2016-12-04 15:50 METAR KESN 042050Z 00000KT 10SM BKN150 OVC200 08/M02 A3025 =
2016-12-04 14:50 METAR KESN 041950Z 00000KT 10SM BKN150 OVC200 08/M02 A3025 =
2016-12-04 13:50 METAR KESN 041850Z 29006KT 10SM SKC 08/M02 A3026 =
2016-12-04 12:50 METAR KESN 041750Z 29004KT 10SM CLR 09/M02 A3026 =
2016-12-04 11:50 METAR KESN 041650Z 33003KT 10SM CLR 09/01 A3028 =

Support USWX by starting your Amazon purchase here.